Time;durP1;ratioP1;P1;durP2;ratioP2;P2;SDS_P1;SDS_P2;PMS_P1;PMS_P2;Temp;Humidity;BMP_temperature;BMP_pressure;BME280_temperature;BME280_humidity;BME280_pressure;Samples;Min_cycle;Max_cycle;Signal;HPM_P1;HPM_P2
2023/04/23 00:00:19;;;;;;;54.25;48.45;;;;;;;9.28;100.00;100641.00;5092707;28;20031;-59
2023/04/23 00:02:48;;;;;;;55.55;48.38;;;;;;;9.36;99.65;100630.78;5090913;28;20019;-59
2023/04/23 00:05:15;;;;;;;51.22;45.83;;;;;;;9.21;99.10;100634.38;5099533;28;20088;-59
2023/04/23 00:07:41;;;;;;;51.28;45.95;;;;;;;9.29;99.34;100621.47;5110395;27;20031;-59
2023/04/23 00:10:09;;;;;;;52.72;47.13;;;;;;;9.20;99.36;100624.69;5095671;28;20085;-59
2023/04/23 00:12:35;;;;;;;50.65;45.25;;;;;;;9.20;99.88;100620.22;5091681;28;20044;-59
2023/04/23 00:15:04;;;;;;;52.42;46.90;;;;;;;9.22;99.62;100626.31;5092084;28;20467;-59
2023/04/23 00:17:30;;;;;;;50.38;45.40;;;;;;;9.27;99.04;100624.25;5094664;28;20467;-59
2023/04/23 00:19:55;;;;;;;51.05;45.70;;;;;;;9.27;98.77;100616.28;5098641;28;20035;-59
2023/04/23 00:22:21;;;;;;;49.58;44.47;;;;;;;9.33;99.12;100610.59;5091512;28;20356;-61
2023/04/23 00:24:46;;;;;;;48.83;43.92;;;;;;;9.22;99.06;100614.84;5092188;28;20020;-59
2023/04/23 00:27:14;;;;;;;48.00;43.25;;;;;;;9.23;99.05;100617.38;5090609;28;20019;-59
2023/04/23 00:29:42;;;;;;;46.17;41.67;;;;;;;9.22;99.04;100620.16;5092343;28;20024;-59
2023/04/23 00:32:08;;;;;;;45.50;40.92;;;;;;;9.14;98.86;100614.47;5092288;28;20419;-59
2023/04/23 00:34:33;;;;;;;46.72;41.88;;;;;;;9.17;98.99;100617.78;5090668;28;20031;-59
2023/04/23 00:36:59;;;;;;;42.83;38.53;;;;;;;9.18;99.12;100614.19;5090364;28;20073;-59
2023/04/23 00:39:24;;;;;;;44.58;40.10;;;;;;;9.10;99.04;100613.78;5092045;28;20051;-59
2023/04/23 00:41:52;;;;;;;43.15;38.90;;;;;;;9.19;99.37;100615.88;5091825;28;20031;-59
2023/04/23 00:44:20;;;;;;;46.13;41.53;;;;;;;9.00;99.24;100605.56;5095148;28;20024;-60
2023/04/23 00:46:45;;;;;;;46.30;41.50;;;;;;;9.05;100.00;100599.94;5091671;28;20032;-59
2023/04/23 00:49:12;;;;;;;43.55;39.13;;;;;;;9.05;99.82;100600.78;5090672;28;20085;-59
2023/04/23 00:51:38;;;;;;;43.42;39.03;;;;;;;9.02;100.00;100587.72;5096688;28;20131;-59
2023/04/23 00:54:03;;;;;;;44.15;39.92;;;;;;;9.07;99.67;100593.59;5090764;28;20456;-59
2023/04/23 00:56:29;;;;;;;44.00;39.33;;;;;;;9.10;99.68;100593.41;5091514;28;20020;-59
2023/04/23 00:58:55;;;;;;;42.20;37.92;;;;;;;9.10;99.86;100581.97;5092703;28;20104;-59
2023/04/23 01:01:20;;;;;;;44.05;39.65;;;;;;;9.18;100.00;100587.66;5094456;28;20056;-59
2023/04/23 01:03:51;;;;;;;42.28;38.08;;;;;;;9.13;99.88;100581.78;5094493;28;20050;-59
2023/04/23 01:06:16;;;;;;;44.60;40.05;;;;;;;9.09;100.00;100578.47;5095475;28;20103;-59
2023/04/23 01:08:43;;;;;;;43.05;38.72;;;;;;;9.13;100.00;100576.47;5096084;28;20024;-59
2023/04/23 01:11:13;;;;;;;43.47;38.97;;;;;;;9.07;100.00;100571.53;5095682;28;20016;-59
2023/04/23 01:13:38;;;;;;;44.47;40.25;;;;;;;9.17;100.00;100574.47;5094007;28;20067;-59
2023/04/23 01:16:03;;;;;;;44.33;39.78;;;;;;;9.08;100.00;100573.22;5109870;28;20466;-59
2023/04/23 01:18:33;;;;;;;42.75;38.50;;;;;;;9.07;100.00;100574.19;5100426;28;20019;-59
2023/04/23 01:20:58;;;;;;;42.75;38.53;;;;;;;9.03;100.00;100565.56;5097100;28;20089;-59
2023/04/23 01:23:25;;;;;;;42.42;38.20;;;;;;;9.23;100.00;100572.28;5095527;28;20475;-59
2023/04/23 01:25:51;;;;;;;42.22;38.13;;;;;;;9.14;100.00;100569.34;5093780;28;20051;-59
2023/04/23 01:28:17;;;;;;;43.78;39.10;;;;;;;8.98;100.00;100566.78;5094395;28;20048;-59
2023/04/23 01:30:44;;;;;;;43.90;39.65;;;;;;;9.02;100.00;100563.84;5095189;28;20031;-59
2023/04/23 01:33:12;;;;;;;42.45;38.33;;;;;;;9.08;100.00;100567.94;5095296;28;20024;-59
2023/04/23 01:35:42;;;;;;;41.97;37.55;;;;;;;9.14;100.00;100561.38;5075103;28;20027;-59
2023/04/23 01:38:09;;;;;;;42.78;38.50;;;;;;;9.07;100.00;100566.22;5081176;28;20486;-59
2023/04/23 01:40:39;;;;;;;42.72;38.30;;;;;;;9.08;100.00;100566.13;5095006;28;20494;-59
2023/04/23 01:43:05;;;;;;;42.83;38.72;;;;;;;9.09;100.00;100553.72;5094948;28;20024;-59
2023/04/23 01:45:30;;;;;;;41.33;37.42;;;;;;;9.07;100.00;100563.56;5094774;28;20028;-59
2023/04/23 01:47:56;;;;;;;39.60;35.67;;;;;;;9.05;100.00;100557.50;5093708;28;20372;-59
2023/04/23 01:50:23;;;;;;;38.70;34.95;;;;;;;9.10;100.00;100555.44;5094731;28;20020;-59
2023/04/23 01:52:49;;;;;;;39.75;35.90;;;;;;;9.10;100.00;100561.59;5096247;28;20028;-59
2023/04/23 01:55:17;;;;;;;39.53;35.65;;;;;;;9.07;100.00;100564.44;5094748;28;20032;-59
2023/04/23 01:57:43;;;;;;;40.13;36.20;;;;;;;9.03;100.00;100565.56;5093264;28;20433;-60
2023/04/23 02:00:12;;;;;;;38.92;34.85;;;;;;;9.01;100.00;100567.47;5093933;28;20057;-59
2023/04/23 02:02:39;;;;;;;39.40;35.38;;;;;;;9.02;100.00;100566.50;5094833;28;20039;-59
2023/04/23 02:05:10;;;;;;;39.05;35.45;;;;;;;9.05;100.00;100562.81;5094946;28;20023;-59
2023/04/23 02:07:35;;;;;;;36.42;32.95;;;;;;;9.06;100.00;100559.22;5094176;28;20483;-59
2023/04/23 02:10:04;;;;;;;38.47;34.97;;;;;;;9.01;100.00;100567.47;5094085;28;20060;-59
2023/04/23 02:12:29;;;;;;;38.50;34.60;;;;;;;9.06;100.00;100561.88;5092617;28;20037;-59
2023/04/23 02:14:55;;;;;;;37.63;34.05;;;;;;;8.92;100.00;100544.16;5093413;28;20020;-59
2023/04/23 02:17:21;;;;;;;36.42;33.13;;;;;;;8.91;100.00;100550.38;5092191;28;20024;-59
2023/04/23 02:19:48;;;;;;;36.42;33.10;;;;;;;8.96;100.00;100552.78;5097149;28;20111;-59
2023/04/23 02:22:14;;;;;;;34.50;31.15;;;;;;;9.06;100.00;100549.47;5092656;28;20024;-59
2023/04/23 02:24:40;;;;;;;35.10;31.85;;;;;;;9.07;100.00;100543.19;5091842;28;20052;-59
2023/04/23 02:27:07;;;;;;;37.15;33.75;;;;;;;9.07;100.00;100542.34;5112521;28;20058;-59
2023/04/23 02:29:35;;;;;;;35.13;31.90;;;;;;;9.01;100.00;100543.59;5113741;28;20023;-59
2023/04/23 02:32:01;;;;;;;36.20;32.80;;;;;;;9.19;100.00;100552.19;5112615;28;20023;-59
2023/04/23 02:34:26;;;;;;;35.35;32.15;;;;;;;9.14;100.00;100548.13;5110061;28;20103;-59
2023/04/23 02:36:52;;;;;;;36.13;32.75;;;;;;;9.07;100.00;100548.50;5111213;28;20542;-59
2023/04/23 02:39:17;;;;;;;35.15;31.90;;;;;;;9.03;100.00;100548.78;5112429;28;20037;-59
2023/04/23 02:41:45;;;;;;;35.28;31.98;;;;;;;8.99;100.00;100544.63;5107996;28;20077;-59
2023/04/23 02:44:10;;;;;;;35.22;31.85;;;;;;;9.05;100.00;100547.75;5111004;28;20054;-59
2023/04/23 02:46:36;;;;;;;36.30;33.00;;;;;;;8.97;100.00;100544.72;5101020;28;20019;-59
2023/04/23 02:49:03;;;;;;;35.25;32.03;;;;;;;8.98;100.00;100546.44;5106972;28;20222;-59
2023/04/23 02:51:30;;;;;;;35.33;31.83;;;;;;;8.92;100.00;100525.59;5109511;28;20042;-59
2023/04/23 02:53:55;;;;;;;36.45;33.10;;;;;;;8.99;100.00;100536.66;5110359;28;20398;-59
2023/04/23 02:56:21;;;;;;;37.55;34.13;;;;;;;9.00;100.00;100538.34;5092296;28;20020;-59
2023/04/23 02:58:46;;;;;;;35.88;32.58;;;;;;;9.02;100.00;100544.44;5112722;28;20027;-59
2023/04/23 03:01:12;;;;;;;34.50;31.30;;;;;;;9.01;100.00;100542.75;5109343;28;20024;-59
2023/04/23 03:03:40;;;;;;;36.63;33.03;;;;;;;8.98;100.00;100537.63;5105498;28;20076;-59
2023/04/23 03:06:06;;;;;;;36.85;33.40;;;;;;;8.91;100.00;100523.84;5108679;28;20035;-59
2023/04/23 03:08:32;;;;;;;34.30;31.10;;;;;;;8.97;100.00;100528.81;5111815;28;20110;-59
2023/04/23 03:10:57;;;;;;;35.88;32.50;;;;;;;8.95;100.00;100533.34;5098189;28;20088;-59
2023/04/23 03:13:24;;;;;;;33.95;30.67;;;;;;;8.96;100.00;100534.19;5068182;28;1123626;-59
2023/04/23 03:15:50;;;;;;;35.25;32.05;;;;;;;8.95;100.00;100525.41;5111322;28;20042;-59
2023/04/23 03:18:19;;;;;;;34.63;31.42;;;;;;;8.95;100.00;100529.84;5112576;28;20098;-59
2023/04/23 03:20:45;;;;;;;35.40;31.88;;;;;;;8.96;100.00;100526.25;5110799;28;20061;-59
2023/04/23 03:23:10;;;;;;;36.20;32.85;;;;;;;8.93;100.00;100516.66;5109810;28;20493;-59
2023/04/23 03:25:36;;;;;;;34.50;31.40;;;;;;;9.06;100.00;100517.63;5111178;28;20032;-59
2023/04/23 03:28:02;;;;;;;34.38;31.25;;;;;;;9.12;100.00;100520.84;5109488;28;20285;-59
2023/04/23 03:30:28;;;;;;;34.70;31.45;;;;;;;9.09;100.00;100528.06;5113614;28;20034;-59
2023/04/23 03:32:56;;;;;;;33.75;30.65;;;;;;;9.16;100.00;100528.50;5109842;28;20011;-59
2023/04/23 03:35:23;;;;;;;33.05;30.05;;;;;;;9.20;100.00;100511.44;5110822;28;20023;-59
2023/04/23 03:37:48;;;;;;;34.22;31.08;;;;;;;9.14;100.00;100521.59;5111714;28;20024;-59
2023/04/23 03:40:16;;;;;;;34.58;31.40;;;;;;;9.06;100.00;100514.13;5112228;28;20024;-59
2023/04/23 03:42:41;;;;;;;33.15;30.00;;;;;;;9.15;100.00;100518.88;5099885;27;20099;-59
2023/04/23 03:45:07;;;;;;;32.75;29.55;;;;;;;9.10;100.00;100513.81;5094235;28;20110;-59
2023/04/23 03:47:33;;;;;;;35.22;31.98;;;;;;;9.08;100.00;100515.72;5092600;28;20024;-59
2023/04/23 03:49:58;;;;;;;33.78;30.77;;;;;;;9.09;100.00;100517.44;5092320;28;20020;-59
2023/04/23 03:52:23;;;;;;;33.17;30.25;;;;;;;9.20;100.00;100523.88;5092163;28;20058;-59
2023/04/23 03:54:49;;;;;;;35.10;31.90;;;;;;;9.09;100.00;100517.44;5091230;28;20027;-59
2023/04/23 03:57:15;;;;;;;33.25;29.95;;;;;;;9.07;100.00;100529.09;5093127;28;20039;-59
2023/04/23 03:59:40;;;;;;;33.72;30.50;;;;;;;9.07;100.00;100524.63;5094705;28;20032;-59
2023/04/23 04:02:05;;;;;;;33.88;30.70;;;;;;;9.05;100.00;100521.22;5092617;28;20024;-59
2023/04/23 04:04:32;;;;;;;33.97;30.95;;;;;;;9.04;100.00;100531.94;5092370;28;20583;-59
2023/04/23 04:06:59;;;;;;;32.85;29.92;;;;;;;8.98;100.00;100509.28;5090448;28;20020;-59
2023/04/23 04:09:25;;;;;;;35.03;31.90;;;;;;;9.07;100.00;100523.78;5092554;28;20024;-59
2023/04/23 04:11:51;;;;;;;33.38;30.38;;;;;;;9.09;100.00;100529.84;5092952;28;20019;-59
2023/04/23 04:14:16;;;;;;;34.28;31.13;;;;;;;9.00;100.00;100525.97;5094637;28;20039;-59
2023/04/23 04:16:42;;;;;;;33.30;30.27;;;;;;;9.05;100.00;100531.81;5090958;28;20051;-59
2023/04/23 04:19:07;;;;;;;33.05;30.05;;;;;;;8.95;100.00;100533.34;5091087;28;20032;-59
2023/04/23 04:21:33;;;;;;;34.80;31.65;;;;;;;8.91;100.00;100542.41;5090379;28;20495;-59
2023/04/23 04:24:01;;;;;;;33.55;30.38;;;;;;;8.93;100.00;100524.63;5090829;28;20036;-59
2023/04/23 04:26:28;;;;;;;31.42;28.65;;;;;;;8.92;100.00;100535.34;5090885;28;20019;-59
2023/04/23 04:28:54;;;;;;;34.40;31.20;;;;;;;8.99;100.00;100537.50;5096681;28;20390;-59
2023/04/23 04:31:20;;;;;;;33.10;30.00;;;;;;;8.94;100.00;100536.09;5091951;28;20031;-59
2023/04/23 04:33:46;;;;;;;32.90;29.73;;;;;;;8.93;100.00;100531.75;5090311;28;20481;-59
2023/04/23 04:36:13;;;;;;;34.03;30.90;;;;;;;8.98;100.00;100530.50;5091405;28;20416;-59
2023/04/23 04:38:38;;;;;;;34.22;31.05;;;;;;;8.93;100.00;100529.94;5090866;28;20093;-59
2023/04/23 04:41:05;;;;;;;34.67;31.27;;;;;;;8.93;100.00;100524.63;5091668;28;20467;-59
2023/04/23 04:43:31;;;;;;;33.90;30.77;;;;;;;8.97;100.00;100530.59;5090906;28;20032;-58
2023/04/23 04:45:57;;;;;;;33.80;30.48;;;;;;;8.87;100.00;100517.91;5091613;28;20097;-59
2023/04/23 04:48:23;;;;;;;34.13;30.88;;;;;;;8.91;100.00;100528.31;5091634;28;20024;-59
2023/04/23 04:50:49;;;;;;;34.35;30.88;;;;;;;8.89;100.00;100527.56;5096394;28;20035;-59
2023/04/23 04:53:14;;;;;;;32.38;29.27;;;;;;;8.87;100.00;100531.16;5090143;28;20027;-59
2023/04/23 04:55:40;;;;;;;33.03;29.85;;;;;;;8.85;100.00;100529.53;5091929;28;20027;-59
2023/04/23 04:58:06;;;;;;;34.38;31.00;;;;;;;8.81;100.00;100534.19;5091540;28;20463;-59
2023/04/23 05:00:31;;;;;;;33.20;30.30;;;;;;;8.80;100.00;100532.50;5101147;28;20173;-59
2023/04/23 05:02:57;;;;;;;32.42;29.30;;;;;;;8.84;100.00;100541.09;5099482;28;20024;-59
2023/04/23 05:05:27;;;;;;;32.40;29.27;;;;;;;8.80;100.00;100543.09;5091597;28;20085;-59
2023/04/23 05:07:53;;;;;;;33.22;30.20;;;;;;;8.83;100.00;100537.59;5091232;28;20032;-59
2023/04/23 05:10:19;;;;;;;33.95;31.05;;;;;;;8.87;100.00;100533.81;5091872;28;20065;-59
2023/04/23 05:12:45;;;;;;;32.42;29.23;;;;;;;8.91;100.00;100523.00;5094946;28;20591;-59
2023/04/23 05:15:12;;;;;;;33.88;30.73;;;;;;;8.94;100.00;100528.13;5090350;28;20106;-59
2023/04/23 05:17:38;;;;;;;34.05;30.95;;;;;;;8.96;100.00;100527.09;5090137;28;20120;-59
2023/04/23 05:20:04;;;;;;;32.90;29.88;;;;;;;9.01;100.00;100537.44;5091946;28;20024;-59
2023/04/23 05:22:30;;;;;;;33.25;30.27;;;;;;;8.99;100.00;100529.56;5091023;28;20107;-59
2023/04/23 05:24:56;;;;;;;34.13;31.02;;;;;;;9.07;100.00;100534.41;5090323;28;20103;-59
2023/04/23 05:27:21;;;;;;;33.58;30.67;;;;;;;9.16;100.00;100531.16;5090165;28;20024;-59
2023/04/23 05:29:46;;;;;;;34.08;30.67;;;;;;;9.18;100.00;100539.91;5091497;28;20390;-59
2023/04/23 05:32:12;;;;;;;34.53;31.42;;;;;;;9.19;100.00;100543.41;5089917;28;20040;-59
2023/04/23 05:34:38;;;;;;;31.50;28.70;;;;;;;9.21;100.00;100537.06;5089899;28;20028;-59
2023/04/23 05:37:04;;;;;;;33.05;30.08;;;;;;;9.16;100.00;100532.97;5096828;28;20030;-59
2023/04/23 05:39:30;;;;;;;34.00;30.58;;;;;;;9.25;100.00;100540.34;5091387;28;20016;-58
2023/04/23 05:41:55;;;;;;;34.13;30.92;;;;;;;9.19;100.00;100524.81;5089974;28;20027;-58
2023/04/23 05:44:23;;;;;;;32.28;29.38;;;;;;;9.30;100.00;100538.28;5089994;28;20442;-58
2023/04/23 05:46:48;;;;;;;31.60;28.80;;;;;;;9.29;100.00;100529.47;5094393;28;20032;-58
2023/04/23 05:49:16;;;;;;;32.05;28.98;;;;;;;9.37;100.00;100534.28;5094829;28;20095;-58
2023/04/23 05:51:41;;;;;;;31.95;28.80;;;;;;;9.44;100.00;100530.31;5096414;28;20024;-58
2023/04/23 05:54:07;;;;;;;30.20;27.13;;;;;;;9.51;100.00;100530.75;5095118;28;20042;-58
2023/04/23 05:56:32;;;;;;;30.83;28.05;;;;;;;9.52;100.00;100519.16;5097482;28;20028;-58
2023/04/23 05:58:57;;;;;;;30.25;27.55;;;;;;;9.55;100.00;100530.44;5093443;28;20024;-58
2023/04/23 06:01:23;;;;;;;31.27;28.13;;;;;;;9.62;100.00;100524.75;5093228;28;20032;-58
2023/04/23 06:03:51;;;;;;;29.33;26.73;;;;;;;9.69;100.00;100534.88;5094653;28;20024;-59
2023/04/23 06:06:20;;;;;;;29.80;27.17;;;;;;;9.77;100.00;100524.63;5108404;28;20478;-58
2023/04/23 06:08:45;;;;;;;27.95;25.20;;;;;;;9.93;100.00;100526.25;5098190;28;20035;-58
2023/04/23 06:11:11;;;;;;;29.40;26.48;;;;;;;10.01;100.00;100526.63;5094918;28;20027;-58
2023/04/23 06:13:39;;;;;;;28.25;25.55;;;;;;;10.12;100.00;100520.59;5093329;28;20044;-58
2023/04/23 06:16:07;;;;;;;28.25;25.55;;;;;;;10.21;100.00;100526.16;5094305;28;20023;-58
2023/04/23 06:18:33;;;;;;;28.45;25.55;;;;;;;10.32;100.00;100529.91;5096506;28;20043;-58
2023/04/23 06:21:03;;;;;;;28.63;26.15;;;;;;;10.40;100.00;100516.97;5097061;28;20028;-58
2023/04/23 06:23:29;;;;;;;28.70;26.02;;;;;;;10.52;100.00;100508.16;5092323;28;20115;-58
2023/04/23 06:25:54;;;;;;;27.02;24.42;;;;;;;10.58;99.24;100506.88;5092863;28;20020;-58
2023/04/23 06:28:20;;;;;;;27.17;24.67;;;;;;;10.70;99.29;100503.38;5095717;28;20051;-58
2023/04/23 06:30:45;;;;;;;25.38;22.95;;;;;;;10.74;98.96;100496.91;5095313;28;20054;-59
2023/04/23 06:33:11;;;;;;;25.45;22.92;;;;;;;10.82;98.73;100491.88;5112204;28;20088;-58
2023/04/23 06:35:36;;;;;;;26.00;23.52;;;;;;;11.01;98.20;100501.25;5105499;28;20035;-58
2023/04/23 06:38:06;;;;;;;25.02;22.80;;;;;;;11.05;97.11;100498.25;5092064;28;20031;-59
2023/04/23 06:40:32;;;;;;;24.63;22.27;;;;;;;11.13;96.50;100492.38;5093758;28;20475;-59
2023/04/23 06:42:58;;;;;;;21.42;19.58;;;;;;;11.22;95.36;100509.53;5075546;28;20111;-58
2023/04/23 06:45:23;;;;;;;21.98;19.70;;;;;;;11.30;93.61;100508.00;5092240;28;20030;-58
2023/04/23 06:47:49;;;;;;;21.67;19.75;;;;;;;11.35;94.33;100507.66;5093562;28;20024;-59
2023/04/23 06:50:15;;;;;;;21.67;19.48;;;;;;;11.49;93.45;100510.19;5093920;28;20051;-59
2023/04/23 06:52:42;;;;;;;22.20;20.15;;;;;;;11.61;95.19;100505.78;5093555;28;20051;-58
2023/04/23 06:55:08;;;;;;;22.52;20.10;;;;;;;11.67;93.35;100493.84;5092645;28;20031;-59
2023/04/23 06:57:34;;;;;;;18.83;17.02;;;;;;;11.83;93.18;100507.75;5092247;28;20036;-59
2023/04/23 07:00:00;;;;;;;19.90;18.00;;;;;;;11.91;93.13;100501.84;5093384;28;20055;-59
2023/04/23 07:02:25;;;;;;;18.13;16.50;;;;;;;12.03;91.59;100500.97;5093452;28;20024;-59
2023/04/23 07:04:51;;;;;;;19.13;17.33;;;;;;;12.13;91.81;100490.47;5093523;28;20360;-59
2023/04/23 07:07:16;;;;;;;18.15;16.48;;;;;;;12.18;92.10;100502.47;5092915;28;20112;-59
2023/04/23 07:09:42;;;;;;;18.35;16.55;;;;;;;12.27;92.42;100499.13;5093616;28;20031;-58
2023/04/23 07:12:08;;;;;;;17.50;15.80;;;;;;;12.46;91.77;100485.22;5093405;28;20091;-59
2023/04/23 07:14:33;;;;;;;17.92;15.38;;;;;;;12.50;88.10;100493.84;5093023;28;20023;-59
2023/04/23 07:16:59;;;;;;;14.90;13.45;;;;;;;12.51;87.66;100492.88;5093221;28;20020;-59
2023/04/23 07:19:24;;;;;;;17.80;14.65;;;;;;;12.60;87.64;100497.50;5092041;28;20020;-58
2023/04/23 07:21:50;;;;;;;16.50;13.40;;;;;;;12.68;87.02;100500.44;5095111;28;20111;-59
2023/04/23 07:24:15;;;;;;;15.88;12.85;;;;;;;12.69;86.68;100494.09;5091901;28;20016;-58
2023/04/23 07:26:41;;;;;;;17.30;13.05;;;;;;;12.82;85.46;100488.66;5092901;28;20101;-59
2023/04/23 07:29:10;;;;;;;12.77;11.27;;;;;;;12.94;86.17;100482.38;5093087;28;20035;-59
2023/04/23 07:31:36;;;;;;;12.95;11.50;;;;;;;13.08;87.06;100486.59;5091473;28;20027;-59
2023/04/23 07:34:01;;;;;;;12.80;11.10;;;;;;;13.15;85.05;100481.66;5093132;28;20028;-59
2023/04/23 07:36:27;;;;;;;13.43;10.52;;;;;;;13.21;82.75;100491.84;5091301;28;20122;-59
2023/04/23 07:38:53;;;;;;;15.23;11.82;;;;;;;13.25;82.81;100487.09;5109047;28;20024;-59
2023/04/23 07:41:18;;;;;;;12.05;10.75;;;;;;;13.18;81.14;100484.91;5093052;28;20381;-59
2023/04/23 07:43:44;;;;;;;13.40;10.98;;;;;;;13.16;82.17;100483.34;5100041;28;20390;-59
2023/04/23 07:46:09;;;;;;;16.25;10.68;;;;;;;13.23;81.23;100483.69;5092537;28;20027;-58
2023/04/23 07:48:39;;;;;;;14.45;10.05;;;;;;;13.34;81.45;100475.69;5104522;28;20023;-59
2023/04/23 07:51:05;;;;;;;14.80;9.90;;;;;;;13.40;81.01;100472.53;5110961;28;20084;-59
2023/04/23 07:53:30;;;;;;;17.10;10.32;;;;;;;13.53;80.82;100475.03;5110314;28;20440;-59
2023/04/23 07:55:56;;;;;;;14.23;9.52;;;;;;;13.68;80.29;100471.13;5102562;28;20031;-59
2023/04/23 07:58:23;;;;;;;14.23;10.15;;;;;;;13.71;77.57;100480.75;5108666;28;20417;-58
2023/04/23 08:00:48;;;;;;;13.63;8.73;;;;;;;13.79;78.28;100473.75;5103160;28;20028;-59
2023/04/23 08:03:14;;;;;;;14.38;8.65;;;;;;;13.95;79.25;100470.69;5112041;28;20024;-58
2023/04/23 08:05:40;;;;;;;19.60;9.18;;;;;;;14.16;77.97;100470.69;5113148;28;20035;-59
2023/04/23 08:08:07;;;;;;;13.85;8.65;;;;;;;14.21;77.37;100473.00;5111908;28;20428;-59
2023/04/23 08:10:33;;;;;;;16.70;9.10;;;;;;;14.29;78.10;100460.66;5111474;28;20784;-59
2023/04/23 08:12:58;;;;;;;14.25;9.23;;;;;;;14.45;76.18;100464.72;5112259;28;20398;-59
2023/04/23 08:15:24;;;;;;;12.25;8.68;;;;;;;14.63;77.17;100460.47;5112817;28;20031;-59
2023/04/23 08:17:49;;;;;;;10.68;7.97;;;;;;;14.69;74.54;100459.09;5109831;28;20114;-59
2023/04/23 08:20:15;;;;;;;12.38;8.38;;;;;;;14.70;73.47;100458.09;5109855;28;20382;-59
2023/04/23 08:22:41;;;;;;;12.90;8.52;;;;;;;14.90;74.69;100464.41;5112277;28;20026;-59
2023/04/23 08:25:06;;;;;;;12.93;8.20;;;;;;;14.76;71.84;100453.09;5112389;28;20087;-59
2023/04/23 08:27:32;;;;;;;13.68;8.27;;;;;;;14.87;72.70;100453.97;5096718;28;20133;-59
2023/04/23 08:29:57;;;;;;;10.90;7.78;;;;;;;15.02;73.24;100447.25;5090927;28;20024;-59
2023/04/23 08:32:23;;;;;;;14.50;7.75;;;;;;;14.97;71.97;100450.38;5086575;28;20023;-59
2023/04/23 08:34:48;;;;;;;13.00;7.47;;;;;;;15.27;73.44;100453.16;5112473;28;20058;-59
2023/04/23 08:37:13;;;;;;;14.00;7.90;;;;;;;15.34;71.80;100451.59;5110958;28;20031;-59
2023/04/23 08:39:39;;;;;;;13.63;7.90;;;;;;;15.48;70.37;100461.94;5110377;28;20039;-59
2023/04/23 08:42:14;;;;;;;10.63;7.20;;;;;;;15.51;69.67;100456.28;5091714;28;20383;-59
2023/04/23 08:44:42;;;;;;;15.82;7.82;;;;;;;15.49;68.64;100466.28;5105204;28;20020;-59
2023/04/23 08:47:11;;;;;;;11.38;7.45;;;;;;;15.48;68.45;100453.03;5096451;28;20024;-59
2023/04/23 08:49:40;;;;;;;10.40;6.67;;;;;;;15.78;68.49;100457.50;5090837;28;20024;-59
2023/04/23 08:52:13;;;;;;;;;;;;;;;15.97;66.65;100462.00;5104707;28;20307;-59
2023/04/23 08:54:44;;;;;;;13.80;6.90;;;;;;;15.57;66.00;100446.84;5112321;28;20006;-59
2023/04/23 08:57:11;;;;;;;9.02;6.05;;;;;;;15.49;66.96;100454.72;5092691;28;20080;-59
2023/04/23 08:59:38;;;;;;;12.77;7.35;;;;;;;15.58;66.31;100454.75;5091310;28;20024;-59
2023/04/23 09:02:08;;;;;;;12.52;6.68;;;;;;;15.83;66.27;100468.66;5090409;28;20028;-59
2023/04/23 09:04:36;;;;;;;10.27;6.40;;;;;;;15.87;64.44;100454.81;5092051;28;20024;-59
2023/04/23 09:07:03;;;;;;;9.75;6.78;;;;;;;15.93;64.37;100444.50;5097960;28;20461;-59
2023/04/23 09:09:29;;;;;;;14.77;6.47;;;;;;;16.02;65.22;100454.38;5091023;28;20028;-59
2023/04/23 09:11:56;;;;;;;8.57;5.70;;;;;;;15.89;62.97;100455.53;5110655;28;20111;-59
2023/04/23 09:14:25;;;;;;;11.73;6.72;;;;;;;15.77;61.59;100462.00;5112096;28;20043;-59
2023/04/23 09:16:51;;;;;;;10.18;5.88;;;;;;;15.91;62.44;100458.03;5111897;28;20032;-59
2023/04/23 09:19:19;;;;;;;9.73;5.20;;;;;;;16.20;63.94;100444.63;5112136;28;20521;-59
2023/04/23 09:21:45;;;;;;;9.40;5.35;;;;;;;16.17;60.09;100433.34;5108326;28;20120;-59
2023/04/23 09:24:11;;;;;;;8.20;6.05;;;;;;;16.41;60.97;100433.69;5094018;28;20027;-59
2023/04/23 09:26:47;;;;;;;7.43;5.85;;;;;;;16.79;61.66;100435.50;5095780;28;20480;-59
2023/04/23 09:29:18;;;;;;;9.10;4.85;;;;;;;17.18;60.34;100438.00;5075265;28;20042;-59
2023/04/23 09:31:46;;;;;;;10.63;5.70;;;;;;;17.24;57.44;100429.31;5077289;28;20016;-59
2023/04/23 09:34:15;;;;;;;9.15;5.57;;;;;;;17.40;56.61;100431.34;5110369;28;20156;-59
2023/04/23 09:36:41;;;;;;;10.23;5.53;;;;;;;17.40;54.14;100425.97;5113361;28;20390;-59
2023/04/23 09:39:18;;;;;;;9.93;5.65;;;;;;;17.50;55.78;100428.63;5093768;28;20016;-59
2023/04/23 09:41:47;;;;;;;8.68;5.45;;;;;;;17.56;54.59;100429.81;5073701;28;20029;-59
2023/04/23 09:44:21;;;;;;;9.82;5.20;;;;;;;17.69;54.23;100409.63;5075223;28;20078;-59
2023/04/23 09:46:47;;;;;;;8.73;5.38;;;;;;;17.67;53.61;100424.22;5100479;28;20063;-59
2023/04/23 09:49:15;;;;;;;8.63;4.22;;;;;;;17.53;53.59;100411.31;5114481;28;20051;-59
2023/04/23 09:51:47;;;;;;;10.48;5.18;;;;;;;17.27;55.05;100433.56;5113721;28;20458;-59
2023/04/23 09:54:20;;;;;;;11.40;4.90;;;;;;;17.07;55.14;100431.97;5115968;28;20041;-59
2023/04/23 09:56:52;;;;;;;13.15;4.78;;;;;;;16.90;55.09;100429.06;5114046;28;20060;-59
2023/04/23 09:59:27;;;;;;;11.88;5.15;;;;;;;16.83;56.70;100427.97;5113996;28;20498;-59
2023/04/23 10:01:53;;;;;;;8.70;4.40;;;;;;;16.73;56.41;100413.69;5114935;28;20427;-59
2023/04/23 10:04:23;;;;;;;9.15;4.68;;;;;;;16.72;55.16;100417.38;5096611;28;20031;-59
2023/04/23 10:07:01;;;;;;;6.75;4.28;;;;;;;16.71;56.16;100413.84;5094111;28;20067;-59
2023/04/23 10:09:28;;;;;;;10.82;4.60;;;;;;;16.66;56.35;100408.06;5094890;28;20028;-59
2023/04/23 10:11:58;;;;;;;7.13;5.07;;;;;;;16.64;56.82;100414.56;5093597;28;20536;-59
2023/04/23 10:14:25;;;;;;;9.23;5.57;;;;;;;16.69;57.67;100401.56;5093321;28;20097;-59
2023/04/23 10:16:56;;;;;;;8.63;5.53;;;;;;;16.67;57.58;100412.44;5097763;28;20027;-59
2023/04/23 10:19:22;;;;;;;8.27;5.25;;;;;;;16.87;57.67;100402.50;5094685;28;20106;-59
2023/04/23 10:21:59;;;;;;;8.07;5.15;;;;;;;16.98;56.92;100415.75;5101072;28;20027;-59
2023/04/23 10:24:29;;;;;;;7.28;4.78;;;;;;;17.11;56.43;100407.31;5114885;28;20023;-59
2023/04/23 10:27:01;;;;;;;9.57;4.70;;;;;;;17.17;56.42;100411.25;5113403;28;20034;-59
2023/04/23 10:29:38;;;;;;;7.22;4.55;;;;;;;17.17;55.74;100406.72;5111390;28;20038;-59
2023/04/23 10:32:05;;;;;;;7.72;4.78;;;;;;;17.07;55.34;100391.66;5114478;28;20099;-59
2023/04/23 10:34:31;;;;;;;8.35;4.65;;;;;;;17.09;55.91;100393.22;5110885;28;20468;-59
2023/04/23 10:36:58;;;;;;;11.63;5.28;;;;;;;16.92;55.91;100394.84;5093830;28;20026;-59
2023/04/23 10:39:29;;;;;;;8.55;4.70;;;;;;;16.72;56.55;100398.59;5094322;28;20053;-59
2023/04/23 10:41:56;;;;;;;9.55;4.88;;;;;;;16.62;56.09;100389.69;5093962;28;20024;-59
2023/04/23 10:44:21;;;;;;;7.50;4.93;;;;;;;16.67;58.15;100374.00;5095575;28;20028;-59
2023/04/23 10:46:59;;;;;;;9.38;4.90;;;;;;;16.69;57.46;100388.13;5103007;28;20542;-59
2023/04/23 10:49:25;;;;;;;10.63;5.38;;;;;;;16.69;56.58;100378.22;5095459;28;20386;-59
2023/04/23 10:52:14;;;;;;;7.32;4.60;;;;;;;16.80;57.56;100371.88;5093331;28;20065;-59
2023/04/23 10:54:44;;;;;;;6.80;5.00;;;;;;;16.80;56.65;100369.19;5100493;28;20356;-59
2023/04/23 10:57:10;;;;;;;6.15;4.65;;;;;;;17.05;56.86;100364.09;5083443;28;20093;-59
2023/04/23 10:59:51;;;;;;;8.45;4.90;;;;;;;17.01;57.11;100340.22;5097470;28;20482;-59
2023/04/23 11:02:16;;;;;;;9.05;5.35;;;;;;;16.95;56.78;100374.91;5093646;28;20024;-59
2023/04/23 11:04:52;;;;;;;7.80;5.20;;;;;;;16.90;56.23;100355.69;5097174;28;20024;-59
2023/04/23 11:07:18;;;;;;;6.88;4.60;;;;;;;16.82;56.63;100353.75;5107275;28;20475;-59
2023/04/23 11:09:47;;;;;;;6.95;5.05;;;;;;;16.75;57.79;100353.47;5101663;28;20034;-59
2023/04/23 11:12:25;;;;;;;6.45;4.57;;;;;;;16.84;58.55;100349.06;5093029;28;20391;-58